Terminal Aerodrome Forecast
Issued by NWS

Home | Current Version | Previous Version | Text Only | Print | Product List | Glossary On
Versions: 1 2 3 4 5 6 7 8 9 10 11 12 13 14 15 16
383
FTUS43 KICT 161722
TAFSLN
TAF
KSLN 161722Z 1618/1718 16017G25KT P6SM SKC
     FM170000 16012KT P6SM SKC
     FM170600 16014G20KT P6SM BKN015
     FM170900 17016G23KT 6SM BR OVC010
     FM171500 19017G25KT P6SM BKN020=

USA.gov is the U.S. government's official web portal to all federal, state and local government web resources and services.